Time;durP1;ratioP1;P1;durP2;ratioP2;P2;SDS_P1;SDS_P2;PMS_P1;PMS_P2;Temp;Humidity;BMP_temperature;BMP_pressure;BME280_temperature;BME280_humidity;BME280_pressure;Samples;Min_cycle;Max_cycle;Signal;HPM_P1;HPM_P2
2021/05/07 00:01:02;;;;;;;3.65;1.50;;;;;;;18.83;45.32;100736.06;5052941;28;20418;-61
2021/05/07 00:03:27;;;;;;;3.20;1.30;;;;;;;18.86;45.34;100748.19;5053254;28;20029;-62
2021/05/07 00:05:56;;;;;;;3.92;1.60;;;;;;;18.83;45.27;100740.47;5053556;28;20048;-62
2021/05/07 00:08:29;;;;;;;3.40;1.60;;;;;;;18.82;45.57;100744.94;5052615;28;20100;-61
2021/05/07 00:10:56;;;;;;;5.47;1.55;;;;;;;18.78;45.29;100740.88;5053314;28;20100;-62
2021/05/07 00:13:22;;;;;;;5.10;1.60;;;;;;;18.81;45.48;100739.78;5053310;28;20427;-62
2021/05/07 00:15:50;;;;;;;3.83;1.60;;;;;;;18.80;45.55;100743.38;5052419;28;20051;-62
2021/05/07 00:18:16;;;;;;;5.93;2.22;;;;;;;18.76;45.10;100737.53;5053267;28;20029;-61
2021/05/07 00:20:41;;;;;;;4.47;1.80;;;;;;;18.76;45.36;100745.47;5053656;28;20538;-62
2021/05/07 00:23:07;;;;;;;4.53;1.58;;;;;;;18.76;45.56;100748.09;5052722;28;20416;-62
2021/05/07 00:25:32;;;;;;;3.45;1.52;;;;;;;18.75;45.16;100749.06;5052820;28;20112;-62
2021/05/07 00:28:06;;;;;;;4.88;1.70;;;;;;;18.73;44.98;100748.38;5053071;28;20095;-62
2021/05/07 00:30:32;;;;;;;3.90;1.58;;;;;;;18.72;45.32;100746.69;5050777;28;20055;-61
2021/05/07 00:32:57;;;;;;;3.13;1.48;;;;;;;18.72;45.42;100751.13;5053369;28;20109;-62
2021/05/07 00:35:26;;;;;;;4.32;1.60;;;;;;;18.68;45.32;100745.28;5052657;28;20033;-61
2021/05/07 00:37:51;;;;;;;6.85;1.98;;;;;;;18.68;45.33;100750.56;5052386;28;20028;-61
2021/05/07 00:40:18;;;;;;;6.03;1.80;;;;;;;18.68;45.05;100758.47;5052801;28;20024;-61
2021/05/07 00:42:43;;;;;;;4.38;1.85;;;;;;;18.66;45.15;100752.50;5053044;28;20032;-62
2021/05/07 00:45:11;;;;;;;3.70;1.63;;;;;;;18.65;45.10;100758.75;5051488;28;20372;-62
2021/05/07 00:47:45;;;;;;;5.25;1.73;;;;;;;18.63;45.23;100755.41;5052836;28;20033;-61
2021/05/07 00:50:11;;;;;;;3.88;1.70;;;;;;;18.61;45.15;100758.16;5052189;28;20090;-61
2021/05/07 00:52:37;;;;;;;5.93;1.88;;;;;;;18.60;45.10;100759.13;5051209;28;20029;-63
2021/05/07 00:55:07;;;;;;;3.85;1.45;;;;;;;18.56;45.17;100760.34;5052540;28;20064;-62
2021/05/07 00:57:34;;;;;;;4.25;1.70;;;;;;;18.57;44.98;100763.84;5051454;28;20028;-63
2021/05/07 00:59:59;;;;;;;4.25;1.73;;;;;;;18.56;45.07;100770.06;5052792;28;20024;-62
2021/05/07 01:02:25;;;;;;;4.60;1.63;;;;;;;18.57;44.76;100775.22;5052136;28;20115;-61
2021/05/07 01:04:50;;;;;;;5.45;2.00;;;;;;;18.54;44.82;100766.72;5051937;28;20120;-62
2021/05/07 01:07:16;;;;;;;4.30;1.77;;;;;;;18.55;44.80;100766.59;5052173;28;20120;-61
2021/05/07 01:09:42;;;;;;;4.95;1.52;;;;;;;18.51;44.70;100756.44;5052427;28;20349;-62
2021/05/07 01:12:08;;;;;;;4.63;1.77;;;;;;;18.44;44.85;100750.84;5051495;28;20032;-62
2021/05/07 01:14:33;;;;;;;4.35;1.67;;;;;;;18.51;44.66;100753.78;5051913;28;20066;-62
2021/05/07 01:16:58;;;;;;;3.08;1.50;;;;;;;18.47;44.74;100751.41;5052372;28;20094;-61
2021/05/07 01:19:23;;;;;;;4.75;1.80;;;;;;;18.49;44.56;100767.13;5051410;28;20464;-62
2021/05/07 01:21:49;;;;;;;3.70;1.65;;;;;;;18.48;44.84;100768.94;5052506;28;20028;-62
2021/05/07 01:24:15;;;;;;;3.70;1.52;;;;;;;18.48;44.46;100773.34;5051811;28;20029;-62
2021/05/07 01:26:42;;;;;;;3.53;1.60;;;;;;;18.45;44.76;100782.38;5051224;28;20484;-61
2021/05/07 01:29:13;;;;;;;5.35;1.80;;;;;;;18.46;44.52;100796.41;5052354;28;20023;-63
2021/05/07 01:31:43;;;;;;;4.85;1.95;;;;;;;18.43;44.44;100788.75;5052367;28;20436;-63
2021/05/07 01:34:08;;;;;;;4.32;1.80;;;;;;;18.44;44.52;100812.34;5051327;28;20412;-63
2021/05/07 01:36:36;;;;;;;5.30;1.92;;;;;;;18.43;44.59;100804.56;5051764;28;20039;-61
2021/05/07 01:39:02;;;;;;;3.72;1.83;;;;;;;18.42;44.47;100805.53;5051974;28;20104;-61
2021/05/07 01:41:28;;;;;;;5.28;1.70;;;;;;;18.41;44.41;100807.34;5051089;28;20096;-61
2021/05/07 01:43:53;;;;;;;5.88;2.22;;;;;;;18.40;44.67;100813.56;5051721;28;20097;-61
2021/05/07 01:46:18;;;;;;;3.22;1.50;;;;;;;18.40;44.34;100821.47;5050999;28;20429;-61
2021/05/07 01:48:46;;;;;;;5.07;2.00;;;;;;;18.39;44.66;100809.28;5052098;28;20029;-61
2021/05/07 01:51:11;;;;;;;5.78;1.88;;;;;;;18.39;44.49;100811.06;5051740;28;20021;-62
2021/05/07 01:53:37;;;;;;;3.80;1.70;;;;;;;18.38;44.54;100804.13;5050824;28;20025;-62
2021/05/07 01:56:08;;;;;;;4.32;1.90;;;;;;;18.38;44.33;100806.75;5050612;28;20037;-62
2021/05/07 01:58:34;;;;;;;4.85;1.73;;;;;;;18.36;44.33;100806.03;5051540;28;20025;-62
2021/05/07 02:00:59;;;;;;;4.30;1.85;;;;;;;18.30;44.65;100804.75;5050988;28;20023;-62
2021/05/07 02:03:24;;;;;;;3.80;1.80;;;;;;;18.33;44.29;100820.31;5051299;28;20057;-61
2021/05/07 02:05:50;;;;;;;6.00;1.90;;;;;;;18.30;44.17;100820.56;5051648;28;20025;-62
2021/05/07 02:08:17;;;;;;;5.13;2.20;;;;;;;18.32;44.28;100821.28;5050526;28;20448;-62
2021/05/07 02:10:44;;;;;;;5.22;1.70;;;;;;;18.30;44.17;100817.94;5051845;28;20021;-62
2021/05/07 02:13:16;;;;;;;4.85;1.73;;;;;;;18.29;44.27;100809.19;5051766;28;20032;-63
2021/05/07 02:15:42;;;;;;;4.70;1.70;;;;;;;18.28;44.20;100807.50;5050951;28;20025;-62
2021/05/07 02:18:08;;;;;;;5.47;1.77;;;;;;;18.27;44.54;100808.47;5051478;28;20067;-62
2021/05/07 02:20:38;;;;;;;4.45;1.80;;;;;;;18.27;44.27;100813.75;5051246;28;20055;-62
2021/05/07 02:23:04;;;;;;;4.30;1.80;;;;;;;18.26;44.42;100814.72;5050693;28;20070;-62
2021/05/07 02:25:29;;;;;;;4.15;1.60;;;;;;;18.26;44.37;100811.22;5050942;28;20024;-62
2021/05/07 02:27:56;;;;;;;4.50;2.03;;;;;;;18.25;44.13;100806.94;5051386;28;20077;-62
2021/05/07 02:30:24;;;;;;;4.30;1.73;;;;;;;18.24;44.21;100813.16;5050291;28;20087;-62
2021/05/07 02:32:50;;;;;;;6.07;1.85;;;;;;;18.23;44.13;100819.41;5051362;28;20108;-62
2021/05/07 02:35:15;;;;;;;4.25;1.92;;;;;;;18.23;44.24;100827.31;5050991;28;20104;-62
2021/05/07 02:37:41;;;;;;;3.88;1.77;;;;;;;18.22;44.21;100825.66;5050511;28;20025;-61
2021/05/07 02:40:08;;;;;;;4.47;1.65;;;;;;;18.22;44.18;100820.38;5051358;28;20440;-62
2021/05/07 02:42:34;;;;;;;3.92;1.83;;;;;;;18.22;44.08;100820.38;5050307;28;20391;-62
2021/05/07 02:45:03;;;;;;;3.95;1.70;;;;;;;18.19;44.06;100818.00;5051173;28;20028;-62
2021/05/07 02:47:33;;;;;;;4.32;1.55;;;;;;;18.20;44.14;100812.59;5050975;28;20029;-62
2021/05/07 02:49:59;;;;;;;5.28;2.05;;;;;;;18.19;44.44;100815.34;5050400;28;20076;-62
2021/05/07 02:52:24;;;;;;;4.63;1.98;;;;;;;18.20;44.12;100806.44;5050698;28;20090;-62
2021/05/07 02:54:50;;;;;;;4.78;1.90;;;;;;;18.22;44.17;100804.56;5051225;28;20035;-62
2021/05/07 02:57:18;;;;;;;4.30;1.80;;;;;;;18.25;44.36;100805.13;5050228;28;20040;-62
2021/05/07 02:59:43;;;;;;;4.25;1.63;;;;;;;18.27;43.98;100797.91;5051118;28;20032;-61
2021/05/07 03:02:09;;;;;;;4.32;1.65;;;;;;;18.29;44.33;100788.09;5051170;28;20025;-62
2021/05/07 03:04:34;;;;;;;5.15;2.80;;;;;;;18.31;44.24;100785.34;5050001;28;20025;-62
2021/05/07 03:07:03;;;;;;;3.65;1.65;;;;;;;18.33;44.45;100790.47;5052113;28;20021;-61
2021/05/07 03:09:28;;;;;;;5.22;1.85;;;;;;;18.34;44.31;100790.34;5054436;28;20461;-61
2021/05/07 03:11:58;;;;;;;4.15;1.73;;;;;;;18.36;44.23;100791.06;5053948;28;20057;-61
2021/05/07 03:14:24;;;;;;;4.05;1.70;;;;;;;18.34;44.20;100789.50;5054469;28;20427;-61
2021/05/07 03:16:50;;;;;;;4.10;1.50;;;;;;;18.36;44.21;100791.06;5054591;28;20090;-61
2021/05/07 03:19:15;;;;;;;3.70;1.65;;;;;;;18.33;43.89;100779.94;5053223;28;20025;-61
2021/05/07 03:21:41;;;;;;;4.13;2.10;;;;;;;18.34;43.31;100778.94;5054837;28;20029;-61
2021/05/07 03:24:07;;;;;;;4.05;1.60;;;;;;;18.33;42.92;100783.38;5054751;28;20017;-62
2021/05/07 03:26:33;;;;;;;4.38;1.60;;;;;;;18.30;43.06;100781.84;5053161;28;20051;-62
2021/05/07 03:28:58;;;;;;;3.85;1.95;;;;;;;18.30;42.89;100797.66;5054306;28;20406;-62
2021/05/07 03:31:24;;;;;;;4.38;1.90;;;;;;;18.31;42.80;100823.09;5053939;28;20044;-63
2021/05/07 03:33:49;;;;;;;4.15;1.65;;;;;;;18.29;43.28;100817.13;5053349;28;20166;-62
2021/05/07 03:36:15;;;;;;;5.22;2.28;;;;;;;18.29;43.35;100818.91;5054045;28;20032;-62
2021/05/07 03:38:41;;;;;;;5.43;1.70;;;;;;;18.28;43.75;100811.97;5054108;28;20028;-62
2021/05/07 03:41:06;;;;;;;4.10;1.70;;;;;;;18.24;43.81;100803.44;5053233;28;20440;-62
2021/05/07 03:43:32;;;;;;;4.53;1.77;;;;;;;18.27;43.96;100811.09;5053792;28;20067;-63
2021/05/07 03:46:00;;;;;;;5.20;1.98;;;;;;;18.27;44.02;100810.28;5053177;28;20043;-62
2021/05/07 03:48:25;;;;;;;6.60;2.42;;;;;;;18.28;44.10;100815.44;5053721;28;20044;-62
2021/05/07 03:50:51;;;;;;;4.65;1.90;;;;;;;18.30;44.14;100820.56;5053816;28;20460;-62
2021/05/07 03:53:17;;;;;;;4.28;1.90;;;;;;;18.33;44.23;100838.78;5052877;28;20025;-62
2021/05/07 03:55:43;;;;;;;5.20;1.60;;;;;;;18.35;44.37;100825.47;5053943;28;20486;-61
2021/05/07 03:58:10;;;;;;;4.55;1.50;;;;;;;18.32;44.21;100810.72;5053734;28;20029;-62
2021/05/07 04:00:36;;;;;;;5.55;2.00;;;;;;;18.34;44.16;100806.19;5052658;28;20587;-62
2021/05/07 04:03:02;;;;;;;5.03;1.83;;;;;;;18.36;44.57;100817.44;5053682;28;20028;-62
2021/05/07 04:05:27;;;;;;;4.63;1.70;;;;;;;18.38;44.71;100828.69;5053434;28;20119;-62
2021/05/07 04:10:32;;;;;;;5.97;2.10;;;;;;;18.38;44.30;100823.41;5053440;28;20430;-61
2021/05/07 04:15:23;;;;;;;4.13;1.55;;;;;;;18.36;44.20;100835.91;5052681;28;20036;-61
2021/05/07 04:17:48;;;;;;;4.68;1.85;;;;;;;18.36;44.29;100837.69;5053414;28;20490;-61
2021/05/07 04:20:14;;;;;;;5.15;1.98;;;;;;;18.35;44.64;100847.41;5052690;28;20051;-62
2021/05/07 04:22:39;;;;;;;3.95;1.80;;;;;;;18.35;43.76;100846.59;5055389;28;20078;-62
2021/05/07 04:25:09;;;;;;;4.00;1.90;;;;;;;18.34;43.48;100860.72;5062262;28;20111;-61
2021/05/07 04:27:40;;;;;;;5.65;2.60;;;;;;;18.32;43.31;100874.03;5062376;28;20045;-61
2021/05/07 04:30:07;;;;;;;5.03;1.90;;;;;;;18.30;43.23;100911.09;5063950;28;20021;-63
2021/05/07 04:32:32;;;;;;;4.35;1.80;;;;;;;18.28;43.43;100905.13;5062460;28;20411;-62
2021/05/07 04:34:57;;;;;;;5.00;1.83;;;;;;;18.27;43.42;100900.78;5064796;28;20081;-62
2021/05/07 04:37:25;;;;;;;4.63;1.73;;;;;;;18.22;43.50;100904.78;5066906;28;20431;-62
2021/05/07 04:39:51;;;;;;;4.30;1.60;;;;;;;18.25;43.46;100923.84;5066715;28;20021;-62
2021/05/07 04:42:16;;;;;;;4.50;2.10;;;;;;;18.26;43.85;100932.56;5054024;28;20112;-62
2021/05/07 04:44:43;;;;;;;4.60;1.65;;;;;;;18.28;43.99;100934.16;5055258;28;20101;-62
2021/05/07 04:47:08;;;;;;;5.05;1.80;;;;;;;18.30;44.31;100931.38;5058041;28;20089;-62
2021/05/07 04:49:34;;;;;;;3.35;1.75;;;;;;;18.31;44.39;100927.78;5070686;28;20025;-62
2021/05/07 04:51:59;;;;;;;3.58;1.58;;;;;;;18.33;44.35;100931.13;5066026;28;20025;-62
2021/05/07 04:54:25;;;;;;;5.20;1.50;;;;;;;18.34;44.54;100930.19;5053304;28;20205;-61
2021/05/07 04:56:51;;;;;;;4.07;1.40;;;;;;;18.36;44.29;100924.75;5052103;28;20025;-62
2021/05/07 04:59:16;;;;;;;5.80;1.70;;;;;;;18.35;44.56;100921.28;5052163;28;20032;-62
2021/05/07 05:01:41;;;;;;;2.97;1.30;;;;;;;18.31;43.76;100925.97;5053036;28;20031;-62
2021/05/07 05:04:07;;;;;;;2.75;1.30;;;;;;;18.27;43.94;100926.34;5051443;28;20075;-60
2021/05/07 05:06:32;;;;;;;4.78;1.50;;;;;;;18.26;43.84;100941.34;5051987;28;20025;-61
2021/05/07 05:08:57;;;;;;;3.97;1.50;;;;;;;18.24;44.09;100947.69;5052744;28;20027;-62
2021/05/07 05:11:22;;;;;;;3.95;1.17;;;;;;;18.27;43.90;100955.38;5051252;28;20103;-61
2021/05/07 05:13:48;;;;;;;4.63;1.40;;;;;;;18.30;44.16;100948.03;5052326;28;20116;-62
2021/05/07 05:16:14;;;;;;;4.85;1.33;;;;;;;18.31;44.05;100952.38;5051866;28;20036;-62
2021/05/07 05:18:39;;;;;;;2.72;1.17;;;;;;;18.47;43.54;100966.97;5051864;28;20100;-61
2021/05/07 05:21:07;;;;;;;2.97;1.15;;;;;;;18.53;43.72;100973.53;5052319;28;20559;-61
2021/05/07 05:23:34;;;;;;;4.68;1.15;;;;;;;18.59;43.57;100983.59;5051574;28;20043;-63
2021/05/07 05:26:02;;;;;;;5.25;1.20;;;;;;;18.66;43.54;100984.81;5051343;28;20036;-62
2021/05/07 05:28:28;;;;;;;2.58;1.00;;;;;;;18.72;43.31;100984.28;5051449;28;20045;-62
2021/05/07 05:30:54;;;;;;;4.72;1.08;;;;;;;18.80;43.58;100995.06;5051629;28;20565;-61
2021/05/07 05:33:20;;;;;;;2.38;1.13;;;;;;;18.88;43.15;100993.63;5051023;28;20023;-61
2021/05/07 05:35:48;;;;;;;2.35;0.90;;;;;;;18.92;43.20;101005.63;5051780;28;20494;-61
2021/05/07 05:38:13;;;;;;;3.03;1.15;;;;;;;18.95;43.41;101018.56;5051278;28;20483;-62
2021/05/07 05:40:40;;;;;;;4.07;1.33;;;;;;;18.99;43.27;101034.03;5051259;28;20041;-60
2021/05/07 05:43:05;;;;;;;2.45;0.90;;;;;;;19.04;43.01;101049.50;5051607;28;20449;-62
2021/05/07 05:45:31;;;;;;;1.90;0.80;;;;;;;19.08;43.11;101043.00;5050927;28;20021;-62
2021/05/07 05:48:15;;;;;;;3.47;1.20;;;;;;;19.14;43.26;101050.44;5051872;28;20036;-62
2021/05/07 05:50:42;;;;;;;2.07;0.97;;;;;;;19.15;43.01;101061.81;5051706;28;20421;-61
2021/05/07 05:53:08;;;;;;;4.38;1.00;;;;;;;19.16;43.01;101068.81;5050898;28;20295;-62
2021/05/07 05:55:36;;;;;;;3.08;1.20;;;;;;;19.15;42.65;101067.09;5050840;28;20409;-62
2021/05/07 05:58:01;;;;;;;1.92;0.70;;;;;;;19.15;42.59;101053.91;5051728;28;20024;-62
2021/05/07 06:00:27;;;;;;;2.55;0.85;;;;;;;19.23;42.90;101074.41;5050235;28;20033;-61
2021/05/07 06:02:52;;;;;;;2.65;0.98;;;;;;;19.26;42.60;101076.81;5051613;28;20079;-62
2021/05/07 06:05:17;;;;;;;3.85;0.90;;;;;;;19.26;42.52;101079.44;5051252;28;20021;-62
2021/05/07 06:07:43;;;;;;;2.70;0.73;;;;;;;19.28;42.34;101085.44;5050797;28;20601;-61
2021/05/07 06:10:11;;;;;;;3.53;1.00;;;;;;;19.29;42.22;101089.75;5051274;28;20020;-61
2021/05/07 06:12:37;;;;;;;3.67;0.85;;;;;;;19.31;42.17;101095.75;5051290;28;20134;-61
2021/05/07 06:15:07;;;;;;;1.88;0.80;;;;;;;19.36;42.05;101093.59;5050441;28;20496;-61
2021/05/07 06:17:33;;;;;;;2.15;0.88;;;;;;;19.42;42.28;101094.88;5051100;28;20029;-62
2021/05/07 06:20:02;;;;;;;3.10;1.45;;;;;;;19.43;41.89;101105.31;5051454;28;20100;-61
2021/05/07 06:22:28;;;;;;;3.10;1.00;;;;;;;19.40;42.23;101109.03;5050322;28;20025;-61
2021/05/07 06:24:58;;;;;;;3.10;0.80;;;;;;;19.42;41.96;101114.19;5051355;28;20158;-61
2021/05/07 06:27:24;;;;;;;4.18;0.90;;;;;;;19.49;41.88;101125.13;5050765;28;20045;-62
2021/05/07 06:29:52;;;;;;;1.92;0.80;;;;;;;19.50;42.21;101124.16;5050684;28;20389;-60
2021/05/07 06:32:20;;;;;;;3.63;1.10;;;;;;;19.55;41.97;101135.16;5050908;28;20435;-60
2021/05/07 06:34:45;;;;;;;2.08;0.88;;;;;;;19.57;42.24;101141.19;5049136;28;20143;-60
2021/05/07 06:37:11;;;;;;;4.07;1.00;;;;;;;19.62;42.02;101143.47;5051066;28;20421;-60
2021/05/07 06:39:36;;;;;;;2.83;0.80;;;;;;;19.65;42.08;101148.50;5051206;28;20025;-63
2021/05/07 06:42:02;;;;;;;3.83;0.80;;;;;;;19.68;42.22;101154.34;5051627;28;20056;-61
2021/05/07 06:44:28;;;;;;;3.53;0.90;;;;;;;19.68;41.94;101164.94;5055746;28;20025;-64
2021/05/07 06:46:54;;;;;;;3.63;0.90;;;;;;;19.70;41.97;101164.81;5055245;28;20090;-62
2021/05/07 06:49:20;;;;;;;2.65;1.17;;;;;;;19.72;42.06;101163.69;5054119;28;20060;-62
2021/05/07 06:51:46;;;;;;;2.63;0.85;;;;;;;19.74;42.08;101167.06;5055080;28;20052;-62
2021/05/07 06:54:11;;;;;;;2.70;0.77;;;;;;;19.79;41.94;101174.66;5055220;28;20123;-62
2021/05/07 06:56:37;;;;;;;2.97;1.10;;;;;;;19.81;42.50;101183.28;5053983;28;20033;-62
2021/05/07 06:59:03;;;;;;;3.75;1.00;;;;;;;19.84;42.68;101187.50;5055192;28;20025;-61
2021/05/07 07:01:38;;;;;;;3.15;0.82;;;;;;;19.85;42.67;101191.81;5054606;28;20017;-62
2021/05/07 07:04:04;;;;;;;3.17;0.82;;;;;;;19.85;42.68;101200.59;5054027;28;20467;-63
2021/05/07 07:06:29;;;;;;;5.32;1.15;;;;;;;19.87;42.47;101200.47;5054315;28;20029;-62
2021/05/07 07:08:55;;;;;;;2.92;0.80;;;;;;;19.85;42.80;101197.94;5054614;28;20021;-62
2021/05/07 07:11:20;;;;;;;3.90;0.88;;;;;;;19.86;42.59;101214.66;5053794;28;20037;-61
2021/05/07 07:13:48;;;;;;;3.55;0.90;;;;;;;19.81;42.95;101207.09;5054480;28;20035;-64
2021/05/07 07:16:23;;;;;;;4.10;1.23;;;;;;;19.80;42.85;101216.00;5054144;28;20029;-62
2021/05/07 07:18:48;;;;;;;2.45;0.73;;;;;;;19.75;42.79;101213.69;5053740;28;20116;-62
2021/05/07 07:21:13;;;;;;;4.38;0.90;;;;;;;19.73;43.15;101217.44;5053998;28;20060;-62
2021/05/07 07:23:39;;;;;;;3.50;0.80;;;;;;;19.72;43.15;101227.16;5054492;28;20036;-62
2021/05/07 07:26:05;;;;;;;2.75;0.90;;;;;;;19.69;43.67;101237.16;5053749;28;20025;-62
2021/05/07 07:28:32;;;;;;;4.82;0.95;;;;;;;19.68;43.70;101243.44;5053846;28;20134;-61
2021/05/07 07:31:00;;;;;;;2.65;0.90;;;;;;;19.64;43.83;101247.28;5053569;28;20053;-61
2021/05/07 07:33:26;;;;;;;3.85;0.80;;;;;;;19.62;43.90;101252.69;5053470;28;20037;-61
2021/05/07 07:35:51;;;;;;;2.22;0.60;;;;;;;19.57;44.06;101260.16;5054456;28;20047;-62
2021/05/07 07:38:17;;;;;;;3.63;0.75;;;;;;;19.54;43.86;101268.34;5053348;28;20060;-62
2021/05/07 07:40:42;;;;;;;2.38;0.80;;;;;;;19.54;43.89;101266.53;5054050;28;20106;-63
2021/05/07 07:43:07;;;;;;;3.03;0.80;;;;;;;19.53;43.89;101269.28;5054139;28;20021;-63
2021/05/07 07:45:33;;;;;;;2.88;1.05;;;;;;;19.54;44.09;101274.44;5052744;28;20290;-60
2021/05/07 07:47:58;;;;;;;3.83;0.90;;;;;;;19.58;43.94;101275.03;5053930;28;20025;-61
2021/05/07 07:50:24;;;;;;;3.05;0.70;;;;;;;19.60;43.84;101272.28;5053617;28;20021;-62
2021/05/07 07:52:50;;;;;;;2.30;0.90;;;;;;;19.61;43.59;101273.97;5053138;28;20021;-61
2021/05/07 07:55:16;;;;;;;4.68;0.90;;;;;;;19.64;43.67;101279.84;5053414;28;20025;-63
2021/05/07 07:57:43;;;;;;;3.85;1.02;;;;;;;19.58;43.70;101275.91;5053652;28;20025;-65
2021/05/07 08:00:09;;;;;;;3.05;0.85;;;;;;;19.61;43.09;101279.25;5052958;28;20053;-63
2021/05/07 08:02:35;;;;;;;3.47;0.80;;;;;;;19.57;43.42;101287.44;5053549;28;20041;-67
2021/05/07 08:05:00;;;;;;;2.70;0.90;;;;;;;19.57;43.31;101292.72;5054120;28;20021;-64
2021/05/07 08:07:25;;;;;;;3.55;0.80;;;;;;;19.59;43.69;101284.66;5053146;28;20099;-65
2021/05/07 08:09:53;;;;;;;3.20;0.70;;;;;;;19.60;43.43;101285.50;5054561;28;20033;-64
2021/05/07 08:12:19;;;;;;;2.67;0.77;;;;;;;19.62;43.82;101295.00;5053587;28;20029;-64
2021/05/07 08:14:44;;;;;;;2.60;0.80;;;;;;;19.61;43.34;101295.94;5052750;28;20083;-65
2021/05/07 08:17:09;;;;;;;2.22;0.75;;;;;;;19.59;43.58;101297.88;5053963;28;20368;-64
2021/05/07 08:19:35;;;;;;;5.45;1.02;;;;;;;19.55;43.59;101307.00;5054108;28;20035;-64
2021/05/07 08:22:04;;;;;;;3.60;0.90;;;;;;;19.52;43.82;101313.41;5052810;28;20017;-63
2021/05/07 08:24:29;;;;;;;2.60;0.75;;;;;;;19.50;43.64;101317.13;5053246;28;20017;-65
2021/05/07 08:26:58;;;;;;;2.58;0.80;;;;;;;19.48;43.88;101319.88;5053603;28;20523;-65
2021/05/07 08:29:24;;;;;;;3.15;0.73;;;;;;;19.49;43.89;101320.75;5052250;28;20036;-64
2021/05/07 08:31:49;;;;;;;2.45;0.80;;;;;;;19.47;43.38;101335.84;5053063;28;20020;-65
2021/05/07 08:34:15;;;;;;;1.67;0.65;;;;;;;19.42;44.00;101336.22;5052213;28;20025;-63
2021/05/07 08:36:40;;;;;;;2.40;0.90;;;;;;;19.42;43.81;101344.16;5053399;28;20048;-65
2021/05/07 08:39:06;;;;;;;2.30;0.70;;;;;;;19.44;43.65;101350.19;5052926;28;20036;-65
2021/05/07 08:41:34;;;;;;;5.72;1.02;;;;;;;19.43;44.26;101351.13;5052197;28;20152;-65
2021/05/07 08:43:59;;;;;;;3.28;0.80;;;;;;;19.40;44.11;101351.38;5052873;28;20445;-66
2021/05/07 08:46:25;;;;;;;2.35;0.70;;;;;;;19.37;44.26;101356.88;5052403;28;20044;-66
2021/05/07 08:48:52;;;;;;;3.22;0.80;;;;;;;19.37;44.19;101367.47;5052585;28;20104;-62
2021/05/07 08:51:18;;;;;;;3.53;0.80;;;;;;;19.37;44.13;101375.41;5052414;28;20117;-62
2021/05/07 08:53:46;;;;;;;2.88;0.82;;;;;;;19.35;44.20;101378.16;5052970;28;20220;-63
2021/05/07 08:56:11;;;;;;;2.85;0.70;;;;;;;19.31;44.11;101375.88;5051745;28;20066;-62
2021/05/07 08:58:37;;;;;;;3.38;0.70;;;;;;;19.31;44.34;101386.44;5052219;28;20020;-62
2021/05/07 09:01:06;;;;;;;1.80;0.75;;;;;;;19.30;44.58;101377.69;5052944;28;20118;-62
2021/05/07 09:03:47;;;;;;;2.63;0.80;;;;;;;19.32;44.35;101382.84;5051571;28;20067;-61
2021/05/07 09:06:20;;;;;;;3.33;0.80;;;;;;;19.32;44.42;101383.69;5052251;28;20495;-60
2021/05/07 09:08:47;;;;;;;2.90;0.80;;;;;;;19.30;44.57;101384.78;5052625;28;20467;-61
2021/05/07 09:11:15;;;;;;;3.25;0.90;;;;;;;19.31;44.71;101397.88;5051212;28;20365;-61
2021/05/07 09:13:43;;;;;;;3.83;0.70;;;;;;;19.33;44.75;101401.22;5052369;28;20029;-62
2021/05/07 09:16:10;;;;;;;5.25;1.13;;;;;;;19.35;44.37;101396.66;5052313;28;20060;-61
2021/05/07 09:18:42;;;;;;;2.10;0.75;;;;;;;19.32;44.68;101406.63;5051120;28;20104;-61
2021/05/07 09:21:08;;;;;;;3.38;0.70;;;;;;;19.28;44.77;101410.47;5052172;28;20512;-63
2021/05/07 09:23:41;;;;;;;2.30;0.68;;;;;;;19.24;44.84;101407.22;5051080;28;20161;-61
2021/05/07 09:26:07;;;;;;;4.03;1.00;;;;;;;19.20;45.00;101417.19;5052242;28;20032;-60
2021/05/07 09:28:32;;;;;;;3.47;0.80;;;;;;;19.16;44.71;101413.09;5051711;28;20044;-60
2021/05/07 09:31:11;;;;;;;1.02;0.57;;;;;;;19.17;44.92;101425.34;5051223;28;20028;-64
2021/05/07 09:33:44;;;;;;;3.03;0.80;;;;;;;19.13;44.82;101423.88;5051552;28;20506;-64
2021/05/07 09:36:21;;;;;;;3.70;0.85;;;;;;;19.13;45.16;101431.81;5051716;28;20037;-62
2021/05/07 09:38:47;;;;;;;3.38;1.20;;;;;;;19.15;45.01;101432.56;5051323;28;20518;-62
2021/05/07 09:41:12;;;;;;;4.05;0.90;;;;;;;19.20;45.00;101437.47;5051569;28;20021;-61
2021/05/07 09:43:37;;;;;;;3.38;0.90;;;;;;;19.21;45.01;101434.72;5051710;28;20075;-61
2021/05/07 09:46:03;;;;;;;2.00;0.88;;;;;;;19.28;45.09;101443.03;5051350;28;20021;-61
2021/05/07 09:48:29;;;;;;;3.65;1.05;;;;;;;19.30;45.09;101441.09;5051347;28;20472;-62
2021/05/07 09:51:02;;;;;;;3.00;1.00;;;;;;;19.40;44.88;101449.16;5051502;28;20037;-63
2021/05/07 09:53:31;;;;;;;3.42;1.02;;;;;;;19.44;44.98;101449.75;5050555;28;20032;-62
2021/05/07 09:56:00;;;;;;;3.95;1.00;;;;;;;19.45;44.89;101446.16;5051453;28;20035;-62
2021/05/07 09:58:27;;;;;;;2.72;1.00;;;;;;;19.48;44.84;101444.13;5050914;28;20366;-63
2021/05/07 10:00:52;;;;;;;4.50;1.10;;;;;;;19.51;44.63;101454.47;5050952;28;20025;-63
2021/05/07 10:03:18;;;;;;;3.72;0.90;;;;;;;19.51;44.66;101462.38;5051219;28;20108;-62
2021/05/07 10:05:43;;;;;;;2.17;0.73;;;;;;;19.50;44.92;101460.72;5051247;28;20112;-64
2021/05/07 10:08:08;;;;;;;3.83;1.08;;;;;;;19.49;44.72;101464.31;5052246;28;20052;-63
2021/05/07 10:10:41;;;;;;;2.63;0.82;;;;;;;19.51;44.85;101466.84;5051455;28;20048;-63
2021/05/07 10:13:13;;;;;;;3.47;1.10;;;;;;;19.52;44.89;101472.00;5051140;28;20060;-63
2021/05/07 10:15:40;;;;;;;3.10;1.02;;;;;;;19.52;44.61;101466.72;5051790;28;20033;-63
2021/05/07 10:18:07;;;;;;;3.50;1.00;;;;;;;19.52;44.35;101469.38;5054226;28;20396;-64
2021/05/07 10:20:38;;;;;;;2.42;1.15;;;;;;;19.52;44.52;101479.94;5054774;28;20041;-64
2021/05/07 10:23:23;;;;;;;2.42;0.90;;;;;;;19.49;44.74;101469.59;5055936;28;20040;-64
2021/05/07 10:26:03;;;;;;;2.70;0.98;;;;;;;19.46;44.42;101483.06;5055438;28;20116;-63
2021/05/07 10:28:43;;;;;;;3.67;1.20;;;;;;;19.42;44.75;101486.88;5054446;28;20158;-63
2021/05/07 10:31:12;;;;;;;2.60;0.80;;;;;;;19.36;44.60;101482.09;5055739;28;20029;-64
2021/05/07 10:33:38;;;;;;;4.07;1.02;;;;;;;19.38;44.23;101486.28;5056245;28;20012;-63
2021/05/07 10:36:05;;;;;;;2.13;0.80;;;;;;;19.38;44.31;101475.72;5055154;28;20056;-64
2021/05/07 10:38:30;;;;;;;3.40;0.90;;;;;;;19.35;44.28;101467.19;5055285;28;20021;-65
2021/05/07 10:41:08;;;;;;;3.05;1.00;;;;;;;19.37;44.50;101478.47;5054475;28;20029;-61
2021/05/07 10:43:46;;;;;;;3.53;1.10;;;;;;;19.36;44.40;101482.94;5054926;28;20400;-62
2021/05/07 10:46:25;;;;;;;3.88;1.00;;;;;;;19.36;44.19;101488.22;5055418;28;20049;-60
2021/05/07 10:48:59;;;;;;;2.55;1.02;;;;;;;19.27;44.10;101475.69;5054457;28;20025;-60
2021/05/07 10:51:25;;;;;;;2.03;0.90;;;;;;;19.25;44.54;101488.19;5054539;28;20021;-59
2021/05/07 10:53:51;;;;;;;2.83;0.98;;;;;;;19.25;44.50;101497.91;5055262;28;20066;-61
2021/05/07 10:56:22;;;;;;;3.75;1.10;;;;;;;19.22;44.63;101499.00;5053866;28;20056;-61
2021/05/07 10:58:51;;;;;;;4.85;1.02;;;;;;;19.19;44.76;101500.06;5054725;28;20032;-63
2021/05/07 11:01:18;;;;;;;2.53;0.95;;;;;;;19.20;44.50;101496.47;5055629;28;20033;-64
2021/05/07 11:03:44;;;;;;;2.22;1.05;;;;;;;19.22;44.81;101491.06;5054301;28;20094;-65
2021/05/07 11:06:10;;;;;;;3.15;0.90;;;;;;;19.29;44.76;101496.72;5055378;28;20116;-64
2021/05/07 11:08:35;;;;;;;3.35;1.00;;;;;;;19.37;44.38;101502.25;5054541;28;20033;-63
2021/05/07 11:11:01;;;;;;;3.38;0.98;;;;;;;19.44;44.57;101499.97;5054235;28;20029;-64
2021/05/07 11:13:29;;;;;;;3.42;1.10;;;;;;;19.45;44.66;101491.94;5054989;28;20021;-63
2021/05/07 11:15:56;;;;;;;2.47;1.15;;;;;;;19.52;44.68;101503.75;5054408;28;20029;-63
2021/05/07 11:18:27;;;;;;;3.67;1.10;;;;;;;19.57;44.54;101498.94;5054343;28;20036;-64
2021/05/07 11:20:53;;;;;;;3.28;1.23;;;;;;;19.56;44.12;101489.31;5054692;28;20447;-61
2021/05/07 11:23:20;;;;;;;4.75;1.20;;;;;;;19.62;44.18;101510.97;5053620;28;20029;-64
2021/05/07 11:25:52;;;;;;;2.95;1.10;;;;;;;19.63;44.14;101502.06;5054770;28;20101;-63
2021/05/07 11:28:19;;;;;;;2.67;0.93;;;;;;;19.62;44.30;101503.88;5053355;28;20087;-65